sensor_id;sensor_type;location;lat;lon;timestamp;P1;durP1;ratioP1;P2;durP2;ratioP2
28529;SDS011;15737;49.760;6.632;2022-07-10T00:00:33;3.90;;;1.17;;
28529;SDS011;15737;49.760;6.632;2022-07-10T00:03:00;3.07;;;0.87;;
28529;SDS011;15737;49.760;6.632;2022-07-10T00:05:27;3.60;;;1.10;;
28529;SDS011;15737;49.760;6.632;2022-07-10T00:07:54;1.37;;;1.00;;
28529;SDS011;15737;49.760;6.632;2022-07-10T00:10:20;3.10;;;1.30;;
28529;SDS011;15737;49.760;6.632;2022-07-10T00:12:47;2.50;;;0.90;;
28529;SDS011;15737;49.760;6.632;2022-07-10T00:15:13;1.83;;;1.07;;
28529;SDS011;15737;49.760;6.632;2022-07-10T00:17:40;2.10;;;0.90;;
28529;SDS011;15737;49.760;6.632;2022-07-10T00:20:06;1.60;;;0.90;;
28529;SDS011;15737;49.760;6.632;2022-07-10T00:22:33;0.90;;;0.90;;
28529;SDS011;15737;49.760;6.632;2022-07-10T00:25:03;0.77;;;0.77;;
28529;SDS011;15737;49.760;6.632;2022-07-10T00:27:29;2.20;;;0.73;;
28529;SDS011;15737;49.760;6.632;2022-07-10T00:29:55;1.40;;;0.90;;
28529;SDS011;15737;49.760;6.632;2022-07-10T00:32:21;3.80;;;0.70;;
28529;SDS011;15737;49.760;6.632;2022-07-10T00:34:46;1.13;;;0.87;;
28529;SDS011;15737;49.760;6.632;2022-07-10T00:37:12;3.50;;;0.90;;
28529;SDS011;15737;49.760;6.632;2022-07-10T00:39:37;2.90;;;0.87;;
28529;SDS011;15737;49.760;6.632;2022-07-10T00:42:10;2.10;;;0.77;;
28529;SDS011;15737;49.760;6.632;2022-07-10T00:44:38;1.27;;;1.00;;
28529;SDS011;15737;49.760;6.632;2022-07-10T00:49:33;0.73;;;0.70;;
28529;SDS011;15737;49.760;6.632;2022-07-10T00:52:00;1.13;;;1.10;;
28529;SDS011;15737;49.760;6.632;2022-07-10T00:54:31;1.07;;;0.63;;
28529;SDS011;15737;49.760;6.632;2022-07-10T00:56:59;0.83;;;0.83;;
28529;SDS011;15737;49.760;6.632;2022-07-10T00:59:25;2.80;;;1.00;;
28529;SDS011;15737;49.760;6.632;2022-07-10T01:01:52;1.50;;;0.80;;
28529;SDS011;15737;49.760;6.632;2022-07-10T01:04:18;0.73;;;0.73;;
28529;SDS011;15737;49.760;6.632;2022-07-10T01:06:44;4.33;;;1.37;;
28529;SDS011;15737;49.760;6.632;2022-07-10T01:09:10;1.33;;;1.13;;
28529;SDS011;15737;49.760;6.632;2022-07-10T01:11:36;4.77;;;1.40;;
28529;SDS011;15737;49.760;6.632;2022-07-10T01:14:02;2.60;;;0.67;;
28529;SDS011;15737;49.760;6.632;2022-07-10T01:16:28;1.70;;;0.70;;
28529;SDS011;15737;49.760;6.632;2022-07-10T01:18:54;2.77;;;1.37;;
28529;SDS011;15737;49.760;6.632;2022-07-10T01:21:24;3.87;;;1.17;;
28529;SDS011;15737;49.760;6.632;2022-07-10T01:23:54;1.87;;;0.80;;
28529;SDS011;15737;49.760;6.632;2022-07-10T01:26:20;0.90;;;0.90;;
28529;SDS011;15737;49.760;6.632;2022-07-10T01:28:51;4.17;;;1.10;;
28529;SDS011;15737;49.760;6.632;2022-07-10T01:31:18;2.33;;;1.20;;
28529;SDS011;15737;49.760;6.632;2022-07-10T01:33:51;1.73;;;1.00;;
28529;SDS011;15737;49.760;6.632;2022-07-10T01:36:17;0.70;;;0.70;;
28529;SDS011;15737;49.760;6.632;2022-07-10T01:38:43;2.63;;;0.50;;
28529;SDS011;15737;49.760;6.632;2022-07-10T01:41:08;1.23;;;0.70;;
28529;SDS011;15737;49.760;6.632;2022-07-10T01:43:37;1.63;;;0.80;;
28529;SDS011;15737;49.760;6.632;2022-07-10T01:46:07;1.60;;;0.90;;
28529;SDS011;15737;49.760;6.632;2022-07-10T01:48:35;1.60;;;0.97;;
28529;SDS011;15737;49.760;6.632;2022-07-10T01:53:30;3.33;;;1.03;;
28529;SDS011;15737;49.760;6.632;2022-07-10T01:55:56;4.93;;;0.90;;
28529;SDS011;15737;49.760;6.632;2022-07-10T01:58:22;3.20;;;1.20;;
28529;SDS011;15737;49.760;6.632;2022-07-10T02:00:48;1.70;;;1.00;;
28529;SDS011;15737;49.760;6.632;2022-07-10T02:03:13;2.73;;;0.90;;
28529;SDS011;15737;49.760;6.632;2022-07-10T02:05:57;2.37;;;0.90;;
28529;SDS011;15737;49.760;6.632;2022-07-10T02:08:23;1.63;;;1.33;;
28529;SDS011;15737;49.760;6.632;2022-07-10T02:10:48;4.53;;;1.13;;
28529;SDS011;15737;49.760;6.632;2022-07-10T02:13:14;2.83;;;1.00;;
28529;SDS011;15737;49.760;6.632;2022-07-10T02:15:42;2.60;;;1.20;;
28529;SDS011;15737;49.760;6.632;2022-07-10T02:18:09;0.93;;;0.93;;
28529;SDS011;15737;49.760;6.632;2022-07-10T02:20:34;1.13;;;1.00;;
28529;SDS011;15737;49.760;6.632;2022-07-10T02:23:01;1.57;;;1.10;;
28529;SDS011;15737;49.760;6.632;2022-07-10T02:25:26;1.37;;;0.97;;
28529;SDS011;15737;49.760;6.632;2022-07-10T02:27:52;0.90;;;0.90;;
28529;SDS011;15737;49.760;6.632;2022-07-10T02:30:17;5.07;;;1.43;;
28529;SDS011;15737;49.760;6.632;2022-07-10T02:32:43;3.27;;;1.17;;
28529;SDS011;15737;49.760;6.632;2022-07-10T02:35:08;1.13;;;0.67;;
28529;SDS011;15737;49.760;6.632;2022-07-10T02:37:34;2.80;;;1.10;;
28529;SDS011;15737;49.760;6.632;2022-07-10T02:40:00;0.90;;;0.90;;
28529;SDS011;15737;49.760;6.632;2022-07-10T02:42:25;0.73;;;0.73;;
28529;SDS011;15737;49.760;6.632;2022-07-10T02:44:51;1.90;;;1.00;;
28529;SDS011;15737;49.760;6.632;2022-07-10T02:47:16;1.53;;;0.83;;
28529;SDS011;15737;49.760;6.632;2022-07-10T02:49:42;5.43;;;1.60;;
28529;SDS011;15737;49.760;6.632;2022-07-10T02:52:08;1.90;;;1.00;;
28529;SDS011;15737;49.760;6.632;2022-07-10T02:54:34;1.03;;;0.90;;
28529;SDS011;15737;49.760;6.632;2022-07-10T02:56:59;2.80;;;1.00;;
28529;SDS011;15737;49.760;6.632;2022-07-10T02:59:28;1.83;;;0.93;;
28529;SDS011;15737;49.760;6.632;2022-07-10T03:01:54;3.37;;;1.13;;
28529;SDS011;15737;49.760;6.632;2022-07-10T03:04:19;6.77;;;1.00;;
28529;SDS011;15737;49.760;6.632;2022-07-10T03:06:45;1.00;;;1.00;;
28529;SDS011;15737;49.760;6.632;2022-07-10T03:09:10;0.90;;;0.90;;
28529;SDS011;15737;49.760;6.632;2022-07-10T03:11:35;1.27;;;0.90;;
28529;SDS011;15737;49.760;6.632;2022-07-10T03:14:01;1.23;;;0.97;;
28529;SDS011;15737;49.760;6.632;2022-07-10T03:16:27;3.83;;;1.03;;
28529;SDS011;15737;49.760;6.632;2022-07-10T03:18:53;5.27;;;1.20;;
28529;SDS011;15737;49.760;6.632;2022-07-10T03:21:18;1.43;;;0.90;;
28529;SDS011;15737;49.760;6.632;2022-07-10T03:23:44;0.87;;;0.73;;
28529;SDS011;15737;49.760;6.632;2022-07-10T03:26:09;2.77;;;0.97;;
28529;SDS011;15737;49.760;6.632;2022-07-10T03:28:35;2.40;;;0.87;;
28529;SDS011;15737;49.760;6.632;2022-07-10T03:31:00;2.23;;;1.00;;
28529;SDS011;15737;49.760;6.632;2022-07-10T03:33:27;1.00;;;0.83;;
28529;SDS011;15737;49.760;6.632;2022-07-10T03:35:53;1.20;;;0.80;;
28529;SDS011;15737;49.760;6.632;2022-07-10T03:38:19;0.77;;;0.77;;
28529;SDS011;15737;49.760;6.632;2022-07-10T03:40:44;2.00;;;1.00;;
28529;SDS011;15737;49.760;6.632;2022-07-10T03:43:13;1.13;;;0.90;;
28529;SDS011;15737;49.760;6.632;2022-07-10T03:45:39;1.23;;;0.80;;
28529;SDS011;15737;49.760;6.632;2022-07-10T03:48:04;1.17;;;0.90;;
28529;SDS011;15737;49.760;6.632;2022-07-10T03:50:30;0.67;;;0.50;;
28529;SDS011;15737;49.760;6.632;2022-07-10T03:52:56;1.53;;;0.87;;
28529;SDS011;15737;49.760;6.632;2022-07-10T03:55:21;0.83;;;0.80;;
28529;SDS011;15737;49.760;6.632;2022-07-10T03:57:47;2.03;;;0.77;;
28529;SDS011;15737;49.760;6.632;2022-07-10T04:00:19;1.20;;;0.70;;
28529;SDS011;15737;49.760;6.632;2022-07-10T04:02:48;1.10;;;0.90;;
28529;SDS011;15737;49.760;6.632;2022-07-10T04:05:19;1.80;;;0.80;;
28529;SDS011;15737;49.760;6.632;2022-07-10T04:07:45;1.70;;;0.87;;
28529;SDS011;15737;49.760;6.632;2022-07-10T04:10:10;1.40;;;0.70;;
28529;SDS011;15737;49.760;6.632;2022-07-10T04:12:36;1.07;;;0.97;;
28529;SDS011;15737;49.760;6.632;2022-07-10T04:15:01;0.80;;;0.80;;
28529;SDS011;15737;49.760;6.632;2022-07-10T04:17:27;2.57;;;0.90;;
28529;SDS011;15737;49.760;6.632;2022-07-10T04:19:54;1.00;;;0.93;;
28529;SDS011;15737;49.760;6.632;2022-07-10T04:22:19;0.70;;;0.70;;
28529;SDS011;15737;49.760;6.632;2022-07-10T04:24:45;1.90;;;0.80;;
28529;SDS011;15737;49.760;6.632;2022-07-10T04:27:10;2.03;;;0.80;;
28529;SDS011;15737;49.760;6.632;2022-07-10T04:29:36;2.10;;;0.77;;
28529;SDS011;15737;49.760;6.632;2022-07-10T04:32:01;2.57;;;1.00;;
28529;SDS011;15737;49.760;6.632;2022-07-10T04:34:27;1.33;;;0.80;;
28529;SDS011;15737;49.760;6.632;2022-07-10T04:36:53;2.13;;;0.77;;
28529;SDS011;15737;49.760;6.632;2022-07-10T04:39:18;1.40;;;0.97;;
28529;SDS011;15737;49.760;6.632;2022-07-10T04:41:44;2.03;;;0.90;;
28529;SDS011;15737;49.760;6.632;2022-07-10T04:44:09;3.13;;;0.80;;
28529;SDS011;15737;49.760;6.632;2022-07-10T04:46:35;4.60;;;0.70;;
28529;SDS011;15737;49.760;6.632;2022-07-10T04:49:01;1.93;;;0.63;;
28529;SDS011;15737;49.760;6.632;2022-07-10T04:51:26;2.73;;;1.00;;
28529;SDS011;15737;49.760;6.632;2022-07-10T04:53:52;0.80;;;0.70;;
28529;SDS011;15737;49.760;6.632;2022-07-10T04:56:17;3.00;;;0.80;;
28529;SDS011;15737;49.760;6.632;2022-07-10T04:58:43;3.90;;;1.47;;
28529;SDS011;15737;49.760;6.632;2022-07-10T05:01:09;1.03;;;0.77;;
28529;SDS011;15737;49.760;6.632;2022-07-10T05:03:34;2.83;;;0.70;;
28529;SDS011;15737;49.760;6.632;2022-07-10T05:06:00;2.80;;;0.80;;
28529;SDS011;15737;49.760;6.632;2022-07-10T05:08:25;4.67;;;0.80;;
28529;SDS011;15737;49.760;6.632;2022-07-10T05:10:51;3.10;;;0.70;;
28529;SDS011;15737;49.760;6.632;2022-07-10T05:13:16;2.13;;;0.70;;
28529;SDS011;15737;49.760;6.632;2022-07-10T05:15:42;1.37;;;0.80;;
28529;SDS011;15737;49.760;6.632;2022-07-10T05:18:09;2.10;;;0.60;;
28529;SDS011;15737;49.760;6.632;2022-07-10T05:20:35;1.80;;;0.87;;
28529;SDS011;15737;49.760;6.632;2022-07-10T05:23:02;0.60;;;0.60;;
28529;SDS011;15737;49.760;6.632;2022-07-10T05:25:28;2.17;;;0.80;;
28529;SDS011;15737;49.760;6.632;2022-07-10T05:27:55;0.77;;;0.70;;
28529;SDS011;15737;49.760;6.632;2022-07-10T05:30:21;3.37;;;0.80;;
28529;SDS011;15737;49.760;6.632;2022-07-10T05:32:46;0.60;;;0.60;;
28529;SDS011;15737;49.760;6.632;2022-07-10T05:35:13;2.40;;;0.70;;
28529;SDS011;15737;49.760;6.632;2022-07-10T05:37:39;3.30;;;0.93;;
28529;SDS011;15737;49.760;6.632;2022-07-10T05:40:05;3.10;;;0.63;;
28529;SDS011;15737;49.760;6.632;2022-07-10T05:42:31;2.00;;;0.70;;
28529;SDS011;15737;49.760;6.632;2022-07-10T05:44:57;1.90;;;0.45;;
28529;SDS011;15737;49.760;6.632;2022-07-10T05:47:22;2.85;;;0.60;;
28529;SDS011;15737;49.760;6.632;2022-07-10T05:49:48;0.82;;;0.60;;
28529;SDS011;15737;49.760;6.632;2022-07-10T05:52:13;2.33;;;1.17;;
28529;SDS011;15737;49.760;6.632;2022-07-10T05:54:39;12.00;;;11.07;;
28529;SDS011;15737;49.760;6.632;2022-07-10T05:57:04;12.65;;;12.10;;
28529;SDS011;15737;49.760;6.632;2022-07-10T05:59:33;16.45;;;15.73;;
28529;SDS011;15737;49.760;6.632;2022-07-10T06:01:59;7.18;;;6.75;;
28529;SDS011;15737;49.760;6.632;2022-07-10T06:04:25;6.43;;;5.95;;
28529;SDS011;15737;49.760;6.632;2022-07-10T06:06:51;3.15;;;2.85;;
28529;SDS011;15737;49.760;6.632;2022-07-10T06:09:16;1.05;;;0.80;;
28529;SDS011;15737;49.760;6.632;2022-07-10T06:11:42;2.38;;;0.70;;
28529;SDS011;15737;49.760;6.632;2022-07-10T06:14:09;0.70;;;0.70;;
28529;SDS011;15737;49.760;6.632;2022-07-10T06:16:35;5.72;;;1.00;;
28529;SDS011;15737;49.760;6.632;2022-07-10T06:19:00;1.65;;;0.73;;
28529;SDS011;15737;49.760;6.632;2022-07-10T06:21:26;1.55;;;0.90;;
28529;SDS011;15737;49.760;6.632;2022-07-10T06:23:51;1.17;;;0.73;;
28529;SDS011;15737;49.760;6.632;2022-07-10T06:26:17;2.65;;;1.00;;
28529;SDS011;15737;49.760;6.632;2022-07-10T06:28:42;0.95;;;0.95;;
28529;SDS011;15737;49.760;6.632;2022-07-10T06:31:08;5.28;;;4.93;;
28529;SDS011;15737;49.760;6.632;2022-07-10T06:33:33;24.85;;;23.58;;
28529;SDS011;15737;49.760;6.632;2022-07-10T06:36:00;29.98;;;28.45;;
28529;SDS011;15737;49.760;6.632;2022-07-10T06:38:26;97.25;;;92.53;;
28529;SDS011;15737;49.760;6.632;2022-07-10T06:40:52;87.05;;;82.72;;
28529;SDS011;15737;49.760;6.632;2022-07-10T06:43:17;86.97;;;82.75;;
28529;SDS011;15737;49.760;6.632;2022-07-10T06:45:43;83.03;;;78.68;;
28529;SDS011;15737;49.760;6.632;2022-07-10T06:48:09;78.65;;;74.57;;
28529;SDS011;15737;49.760;6.632;2022-07-10T06:50:35;95.13;;;90.40;;
28529;SDS011;15737;49.760;6.632;2022-07-10T06:53:01;97.40;;;92.63;;
28529;SDS011;15737;49.760;6.632;2022-07-10T06:55:27;90.85;;;86.47;;
28529;SDS011;15737;49.760;6.632;2022-07-10T06:57:54;86.85;;;82.63;;
28529;SDS011;15737;49.760;6.632;2022-07-10T07:00:20;60.78;;;57.72;;
28529;SDS011;15737;49.760;6.632;2022-07-10T07:02:46;64.97;;;61.88;;
28529;SDS011;15737;49.760;6.632;2022-07-10T07:05:12;85.90;;;81.47;;
28529;SDS011;15737;49.760;6.632;2022-07-10T07:07:38;90.35;;;86.07;;
28529;SDS011;15737;49.760;6.632;2022-07-10T07:10:04;78.65;;;74.72;;
28529;SDS011;15737;49.760;6.632;2022-07-10T07:12:30;71.70;;;68.07;;
28529;SDS011;15737;49.760;6.632;2022-07-10T07:14:56;47.45;;;45.13;;
28529;SDS011;15737;49.760;6.632;2022-07-10T07:17:22;41.80;;;39.78;;
28529;SDS011;15737;49.760;6.632;2022-07-10T07:19:49;44.90;;;42.30;;
28529;SDS011;15737;49.760;6.632;2022-07-10T07:22:34;33.40;;;31.80;;
28529;SDS011;15737;49.760;6.632;2022-07-10T07:25:18;33.78;;;32.05;;
28529;SDS011;15737;49.760;6.632;2022-07-10T07:27:44;32.08;;;30.55;;
28529;SDS011;15737;49.760;6.632;2022-07-10T07:30:11;40.75;;;38.90;;
28529;SDS011;15737;49.760;6.632;2022-07-10T07:32:37;45.78;;;43.60;;
28529;SDS011;15737;49.760;6.632;2022-07-10T07:35:04;43.85;;;41.80;;
28529;SDS011;15737;49.760;6.632;2022-07-10T07:37:38;43.05;;;40.95;;
28529;SDS011;15737;49.760;6.632;2022-07-10T07:40:08;46.13;;;43.83;;
28529;SDS011;15737;49.760;6.632;2022-07-10T07:42:36;40.35;;;38.45;;
28529;SDS011;15737;49.760;6.632;2022-07-10T07:45:02;39.60;;;37.45;;
28529;SDS011;15737;49.760;6.632;2022-07-10T07:47:29;42.75;;;40.70;;
28529;SDS011;15737;49.760;6.632;2022-07-10T07:49:55;29.90;;;28.42;;
28529;SDS011;15737;49.760;6.632;2022-07-10T07:52:21;34.08;;;32.42;;
28529;SDS011;15737;49.760;6.632;2022-07-10T07:54:47;41.08;;;39.08;;
28529;SDS011;15737;49.760;6.632;2022-07-10T07:57:13;50.97;;;48.53;;
28529;SDS011;15737;49.760;6.632;2022-07-10T07:59:39;53.25;;;50.63;;
28529;SDS011;15737;49.760;6.632;2022-07-10T08:02:05;52.95;;;50.33;;
28529;SDS011;15737;49.760;6.632;2022-07-10T08:04:31;78.53;;;74.63;;
28529;SDS011;15737;49.760;6.632;2022-07-10T08:06:57;99.07;;;93.85;;
28529;SDS011;15737;49.760;6.632;2022-07-10T08:09:22;121.30;;;115.47;;
28529;SDS011;15737;49.760;6.632;2022-07-10T08:11:48;25.80;;;24.45;;
28529;SDS011;15737;49.760;6.632;2022-07-10T08:14:13;57.20;;;54.38;;
28529;SDS011;15737;49.760;6.632;2022-07-10T08:16:39;16.85;;;15.90;;
28529;SDS011;15737;49.760;6.632;2022-07-10T08:19:05;2.70;;;1.00;;
28529;SDS011;15737;49.760;6.632;2022-07-10T08:21:31;1.27;;;0.93;;
28529;SDS011;15737;49.760;6.632;2022-07-10T08:23:57;1.52;;;1.00;;
28529;SDS011;15737;49.760;6.632;2022-07-10T08:26:23;2.55;;;1.10;;
28529;SDS011;15737;49.760;6.632;2022-07-10T08:28:49;1.50;;;1.02;;
28529;SDS011;15737;49.760;6.632;2022-07-10T08:31:15;1.85;;;1.10;;
28529;SDS011;15737;49.760;6.632;2022-07-10T08:33:41;2.58;;;0.90;;
28529;SDS011;15737;49.760;6.632;2022-07-10T08:36:06;0.90;;;0.70;;
28529;SDS011;15737;49.760;6.632;2022-07-10T08:38:32;2.55;;;0.93;;
28529;SDS011;15737;49.760;6.632;2022-07-10T08:40:57;2.63;;;1.00;;
28529;SDS011;15737;49.760;6.632;2022-07-10T08:43:24;3.03;;;0.90;;
28529;SDS011;15737;49.760;6.632;2022-07-10T08:45:50;3.42;;;0.90;;
28529;SDS011;15737;49.760;6.632;2022-07-10T08:48:19;1.23;;;0.90;;
28529;SDS011;15737;49.760;6.632;2022-07-10T08:50:48;2.22;;;1.00;;
28529;SDS011;15737;49.760;6.632;2022-07-10T08:53:24;0.93;;;0.70;;
28529;SDS011;15737;49.760;6.632;2022-07-10T08:55:55;1.80;;;0.60;;
28529;SDS011;15737;49.760;6.632;2022-07-10T08:58:21;1.27;;;0.80;;
28529;SDS011;15737;49.760;6.632;2022-07-10T09:00:47;3.38;;;0.70;;
28529;SDS011;15737;49.760;6.632;2022-07-10T09:03:12;1.10;;;0.70;;
28529;SDS011;15737;49.760;6.632;2022-07-10T09:05:38;1.35;;;0.70;;
28529;SDS011;15737;49.760;6.632;2022-07-10T09:08:04;1.65;;;0.70;;
28529;SDS011;15737;49.760;6.632;2022-07-10T09:10:45;1.58;;;1.10;;
28529;SDS011;15737;49.760;6.632;2022-07-10T09:13:11;1.30;;;0.70;;
28529;SDS011;15737;49.760;6.632;2022-07-10T09:15:36;2.35;;;0.90;;
28529;SDS011;15737;49.760;6.632;2022-07-10T09:18:02;2.13;;;1.00;;
28529;SDS011;15737;49.760;6.632;2022-07-10T09:20:32;1.92;;;1.00;;
28529;SDS011;15737;49.760;6.632;2022-07-10T09:23:35;1.02;;;0.75;;
28529;SDS011;15737;49.760;6.632;2022-07-10T09:25:54;1.48;;;0.75;;
28529;SDS011;15737;49.760;6.632;2022-07-10T09:28:20;0.77;;;0.73;;
28529;SDS011;15737;49.760;6.632;2022-07-10T09:30:47;3.53;;;0.90;;
28529;SDS011;15737;49.760;6.632;2022-07-10T09:33:30;1.73;;;1.13;;
28529;SDS011;15737;49.760;6.632;2022-07-10T09:41:15;1.90;;;1.00;;
28529;SDS011;15737;49.760;6.632;2022-07-10T09:43:44;1.10;;;0.65;;
28529;SDS011;15737;49.760;6.632;2022-07-10T09:46:13;1.17;;;0.85;;
28529;SDS011;15737;49.760;6.632;2022-07-10T09:48:39;3.05;;;0.93;;
28529;SDS011;15737;49.760;6.632;2022-07-10T09:51:07;1.30;;;0.70;;
28529;SDS011;15737;49.760;6.632;2022-07-10T09:53:39;2.22;;;0.80;;
28529;SDS011;15737;49.760;6.632;2022-07-10T09:56:07;3.85;;;0.75;;
28529;SDS011;15737;49.760;6.632;2022-07-10T09:58:34;1.88;;;0.80;;
28529;SDS011;15737;49.760;6.632;2022-07-10T10:01:04;1.92;;;0.90;;
28529;SDS011;15737;49.760;6.632;2022-07-10T10:03:34;1.33;;;0.80;;
28529;SDS011;15737;49.760;6.632;2022-07-10T10:06:08;0.80;;;0.80;;
28529;SDS011;15737;49.760;6.632;2022-07-10T10:08:56;0.70;;;0.70;;
28529;SDS011;15737;49.760;6.632;2022-07-10T10:11:31;1.67;;;0.93;;
28529;SDS011;15737;49.760;6.632;2022-07-10T10:13:58;3.20;;;1.27;;
28529;SDS011;15737;49.760;6.632;2022-07-10T10:16:25;2.28;;;1.05;;
28529;SDS011;15737;49.760;6.632;2022-07-10T10:18:52;2.42;;;0.80;;
28529;SDS011;15737;49.760;6.632;2022-07-10T10:21:38;2.90;;;1.23;;
28529;SDS011;15737;49.760;6.632;2022-07-10T10:24:04;2.50;;;1.20;;
28529;SDS011;15737;49.760;6.632;2022-07-10T10:26:31;1.95;;;1.20;;
28529;SDS011;15737;49.760;6.632;2022-07-10T10:28:59;2.20;;;1.40;;
28529;SDS011;15737;49.760;6.632;2022-07-10T10:31:26;0.85;;;0.85;;
28529;SDS011;15737;49.760;6.632;2022-07-10T10:33:56;3.08;;;1.33;;
28529;SDS011;15737;49.760;6.632;2022-07-10T10:41:24;1.55;;;1.35;;
28529;SDS011;15737;49.760;6.632;2022-07-10T10:46:37;1.25;;;1.02;;
28529;SDS011;15737;49.760;6.632;2022-07-10T10:52:17;1.80;;;1.20;;
28529;SDS011;15737;49.760;6.632;2022-07-10T10:59:57;1.20;;;1.10;;
28529;SDS011;15737;49.760;6.632;2022-07-10T11:02:31;2.38;;;1.30;;
28529;SDS011;15737;49.760;6.632;2022-07-10T11:07:58;2.60;;;1.00;;
28529;SDS011;15737;49.760;6.632;2022-07-10T11:10:26;2.08;;;1.10;;
28529;SDS011;15737;49.760;6.632;2022-07-10T11:15:29;2.13;;;1.13;;
28529;SDS011;15737;49.760;6.632;2022-07-10T11:17:57;1.58;;;1.20;;
28529;SDS011;15737;49.760;6.632;2022-07-10T11:20:23;1.27;;;0.85;;
28529;SDS011;15737;49.760;6.632;2022-07-10T11:22:57;1.60;;;1.02;;
28529;SDS011;15737;49.760;6.632;2022-07-10T11:31:15;0.88;;;0.88;;
28529;SDS011;15737;49.760;6.632;2022-07-10T11:33:42;2.83;;;0.95;;
28529;SDS011;15737;49.760;6.632;2022-07-10T11:36:10;2.60;;;1.10;;
28529;SDS011;15737;49.760;6.632;2022-07-10T11:38:40;0.90;;;0.90;;
28529;SDS011;15737;49.760;6.632;2022-07-10T11:43:47;2.33;;;1.20;;
28529;SDS011;15737;49.760;6.632;2022-07-10T11:46:16;2.88;;;1.23;;
28529;SDS011;15737;49.760;6.632;2022-07-10T11:48:43;2.17;;;1.20;;
28529;SDS011;15737;49.760;6.632;2022-07-10T11:51:27;2.22;;;1.10;;
28529;SDS011;15737;49.760;6.632;2022-07-10T11:54:04;2.65;;;1.20;;
28529;SDS011;15737;49.760;6.632;2022-07-10T11:56:35;1.63;;;0.98;;
28529;SDS011;15737;49.760;6.632;2022-07-10T11:59:11;1.02;;;0.80;;
28529;SDS011;15737;49.760;6.632;2022-07-10T12:04:11;2.22;;;1.00;;
28529;SDS011;15737;49.760;6.632;2022-07-10T12:06:38;0.88;;;0.82;;
28529;SDS011;15737;49.760;6.632;2022-07-10T12:11:32;0.88;;;0.88;;
28529;SDS011;15737;49.760;6.632;2022-07-10T12:14:17;0.85;;;0.80;;
28529;SDS011;15737;49.760;6.632;2022-07-10T12:16:44;1.15;;;0.90;;
28529;SDS011;15737;49.760;6.632;2022-07-10T12:19:12;2.58;;;1.00;;
28529;SDS011;15737;49.760;6.632;2022-07-10T12:21:40;3.28;;;0.95;;
28529;SDS011;15737;49.760;6.632;2022-07-10T12:24:07;1.52;;;0.90;;
28529;SDS011;15737;49.760;6.632;2022-07-10T12:26:33;2.88;;;0.93;;
28529;SDS011;15737;49.760;6.632;2022-07-10T12:29:00;1.58;;;1.00;;
28529;SDS011;15737;49.760;6.632;2022-07-10T12:31:27;1.45;;;1.05;;
28529;SDS011;15737;49.760;6.632;2022-07-10T12:33:58;2.97;;;1.00;;
28529;SDS011;15737;49.760;6.632;2022-07-10T12:36:44;1.42;;;0.95;;
28529;SDS011;15737;49.760;6.632;2022-07-10T12:39:15;0.90;;;0.90;;
28529;SDS011;15737;49.760;6.632;2022-07-10T12:41:58;1.25;;;1.00;;
28529;SDS011;15737;49.760;6.632;2022-07-10T12:44:30;0.73;;;0.73;;
28529;SDS011;15737;49.760;6.632;2022-07-10T12:47:17;1.25;;;1.00;;
28529;SDS011;15737;49.760;6.632;2022-07-10T12:49:52;1.55;;;0.90;;
28529;SDS011;15737;49.760;6.632;2022-07-10T12:52:31;1.00;;;0.80;;
28529;SDS011;15737;49.760;6.632;2022-07-10T12:57:48;0.70;;;0.70;;
28529;SDS011;15737;49.760;6.632;2022-07-10T13:00:22;1.77;;;0.95;;
28529;SDS011;15737;49.760;6.632;2022-07-10T13:02:50;0.85;;;0.77;;
28529;SDS011;15737;49.760;6.632;2022-07-10T13:05:30;1.05;;;0.70;;
28529;SDS011;15737;49.760;6.632;2022-07-10T13:11:08;0.70;;;0.70;;
28529;SDS011;15737;49.760;6.632;2022-07-10T13:13:34;0.75;;;0.75;;
28529;SDS011;15737;49.760;6.632;2022-07-10T13:16:00;0.63;;;0.63;;
28529;SDS011;15737;49.760;6.632;2022-07-10T13:18:26;1.17;;;0.75;;
28529;SDS011;15737;49.760;6.632;2022-07-10T13:20:53;1.30;;;0.85;;
28529;SDS011;15737;49.760;6.632;2022-07-10T13:23:20;1.00;;;0.82;;
28529;SDS011;15737;49.760;6.632;2022-07-10T13:25:57;1.20;;;0.80;;
28529;SDS011;15737;49.760;6.632;2022-07-10T13:28:26;0.77;;;0.77;;
28529;SDS011;15737;49.760;6.632;2022-07-10T13:30:51;0.68;;;0.68;;
28529;SDS011;15737;49.760;6.632;2022-07-10T13:33:17;0.73;;;0.68;;
28529;SDS011;15737;49.760;6.632;2022-07-10T13:35:44;0.57;;;0.57;;
28529;SDS011;15737;49.760;6.632;2022-07-10T13:38:09;1.40;;;0.80;;
28529;SDS011;15737;49.760;6.632;2022-07-10T13:40:36;0.70;;;0.70;;
28529;SDS011;15737;49.760;6.632;2022-07-10T13:43:02;1.20;;;0.80;;
28529;SDS011;15737;49.760;6.632;2022-07-10T13:45:28;0.60;;;0.60;;
28529;SDS011;15737;49.760;6.632;2022-07-10T13:47:58;0.65;;;0.65;;
28529;SDS011;15737;49.760;6.632;2022-07-10T13:50:24;0.60;;;0.60;;
28529;SDS011;15737;49.760;6.632;2022-07-10T13:52:50;1.45;;;0.73;;
28529;SDS011;15737;49.760;6.632;2022-07-10T13:55:16;1.88;;;0.60;;
28529;SDS011;15737;49.760;6.632;2022-07-10T13:57:41;0.63;;;0.63;;
28529;SDS011;15737;49.760;6.632;2022-07-10T14:00:07;0.73;;;0.70;;
28529;SDS011;15737;49.760;6.632;2022-07-10T14:02:33;0.82;;;0.82;;
28529;SDS011;15737;49.760;6.632;2022-07-10T14:04:59;1.08;;;0.90;;
28529;SDS011;15737;49.760;6.632;2022-07-10T14:07:25;1.60;;;0.77;;
28529;SDS011;15737;49.760;6.632;2022-07-10T14:09:51;0.75;;;0.73;;
28529;SDS011;15737;49.760;6.632;2022-07-10T14:12:16;0.70;;;0.70;;
28529;SDS011;15737;49.760;6.632;2022-07-10T14:14:42;0.90;;;0.80;;
28529;SDS011;15737;49.760;6.632;2022-07-10T14:17:07;0.60;;;0.60;;
28529;SDS011;15737;49.760;6.632;2022-07-10T14:19:33;1.50;;;0.60;;
28529;SDS011;15737;49.760;6.632;2022-07-10T14:21:59;1.00;;;0.50;;
28529;SDS011;15737;49.760;6.632;2022-07-10T14:24:25;1.77;;;0.80;;
28529;SDS011;15737;49.760;6.632;2022-07-10T14:26:51;0.70;;;0.70;;
28529;SDS011;15737;49.760;6.632;2022-07-10T14:29:18;1.42;;;0.70;;
28529;SDS011;15737;49.760;6.632;2022-07-10T14:31:44;0.70;;;0.70;;
28529;SDS011;15737;49.760;6.632;2022-07-10T14:34:12;0.40;;;0.40;;
28529;SDS011;15737;49.760;6.632;2022-07-10T14:36:38;1.30;;;0.60;;
28529;SDS011;15737;49.760;6.632;2022-07-10T14:39:04;0.50;;;0.50;;
28529;SDS011;15737;49.760;6.632;2022-07-10T14:41:29;1.33;;;0.70;;
28529;SDS011;15737;49.760;6.632;2022-07-10T14:46:24;0.50;;;0.50;;
28529;SDS011;15737;49.760;6.632;2022-07-10T14:48:50;1.00;;;0.52;;
28529;SDS011;15737;49.760;6.632;2022-07-10T14:51:16;0.32;;;0.32;;
28529;SDS011;15737;49.760;6.632;2022-07-10T14:53:42;0.50;;;0.50;;
28529;SDS011;15737;49.760;6.632;2022-07-10T14:56:10;0.52;;;0.47;;
28529;SDS011;15737;49.760;6.632;2022-07-10T14:58:36;1.27;;;0.50;;
28529;SDS011;15737;49.760;6.632;2022-07-10T15:01:02;1.30;;;0.50;;
28529;SDS011;15737;49.760;6.632;2022-07-10T15:03:27;0.60;;;0.40;;
28529;SDS011;15737;49.760;6.632;2022-07-10T15:05:53;0.75;;;0.45;;
28529;SDS011;15737;49.760;6.632;2022-07-10T15:08:21;1.17;;;0.52;;
28529;SDS011;15737;49.760;6.632;2022-07-10T15:10:48;1.55;;;0.40;;
28529;SDS011;15737;49.760;6.632;2022-07-10T15:13:14;1.33;;;0.70;;
28529;SDS011;15737;49.760;6.632;2022-07-10T15:15:40;0.40;;;0.40;;
28529;SDS011;15737;49.760;6.632;2022-07-10T15:18:07;0.55;;;0.52;;
28529;SDS011;15737;49.760;6.632;2022-07-10T15:20:33;2.10;;;0.68;;
28529;SDS011;15737;49.760;6.632;2022-07-10T15:22:58;1.67;;;0.35;;
28529;SDS011;15737;49.760;6.632;2022-07-10T15:25:24;1.85;;;0.43;;
28529;SDS011;15737;49.760;6.632;2022-07-10T15:27:52;0.40;;;0.40;;
28529;SDS011;15737;49.760;6.632;2022-07-10T15:30:19;0.55;;;0.40;;
28529;SDS011;15737;49.760;6.632;2022-07-10T15:32:44;0.75;;;0.57;;
28529;SDS011;15737;49.760;6.632;2022-07-10T15:35:10;0.50;;;0.50;;
28529;SDS011;15737;49.760;6.632;2022-07-10T15:37:36;0.38;;;0.38;;